createdAt,value
2022-11-29T00:01:30.807Z,8.80
2022-11-29T00:03:58.014Z,8.80
2022-11-29T00:06:29.110Z,8.90
2022-11-29T00:08:59.467Z,8.80
2022-11-29T00:11:48.796Z,8.80
2022-11-29T00:14:18.980Z,8.80
2022-11-29T00:16:50.835Z,8.90
2022-11-29T00:19:18.131Z,8.80
2022-11-29T00:21:45.398Z,8.90
2022-11-29T00:24:12.435Z,8.90
2022-11-29T00:26:39.456Z,9.00
2022-11-29T00:29:06.323Z,8.90
2022-11-29T00:31:33.880Z,8.90
2022-11-29T00:34:04.325Z,8.90
2022-11-29T00:36:31.597Z,8.90
2022-11-29T00:38:58.539Z,8.90
2022-11-29T00:41:26.198Z,8.90
2022-11-29T00:43:53.404Z,8.90
2022-11-29T00:46:20.332Z,8.90
2022-11-29T00:48:47.360Z,9.00
2022-11-29T00:51:14.501Z,8.90
2022-11-29T00:53:41.353Z,9.00
2022-11-29T00:56:08.590Z,9.00
2022-11-29T00:58:36.826Z,9.00
2022-11-29T01:01:04.219Z,9.00
2022-11-29T01:03:31.326Z,9.00
2022-11-29T01:06:08.550Z,9.00
2022-11-29T01:08:35.625Z,9.00
2022-11-29T01:11:17.690Z,9.00
2022-11-29T01:13:45.737Z,9.00
2022-11-29T01:16:15.459Z,9.00
2022-11-29T01:18:43.186Z,9.00
2022-11-29T01:21:15.615Z,9.00
2022-11-29T01:23:47.470Z,9.00
2022-11-29T01:26:27.563Z,9.10
2022-11-29T01:28:57.519Z,9.00
2022-11-29T01:31:29.270Z,9.00
2022-11-29T01:33:59.844Z,9.00
2022-11-29T01:36:27.976Z,9.00
2022-11-29T01:38:56.033Z,9.10
2022-11-29T01:41:27.520Z,9.10
2022-11-29T01:44:03.166Z,9.10
2022-11-29T01:46:34.710Z,9.00
2022-11-29T01:49:35.885Z,9.00
2022-11-29T01:52:16.445Z,9.00
2022-11-29T01:54:52.445Z,9.00
2022-11-29T01:57:20.728Z,9.00
2022-11-29T01:59:52.513Z,9.00
2022-11-29T02:02:34.466Z,9.00
2022-11-29T02:05:04.699Z,9.00
2022-11-29T02:07:31.928Z,9.10
2022-11-29T02:09:59.171Z,9.00
2022-11-29T02:13:15.200Z,9.00
2022-11-29T02:15:58.841Z,9.00
2022-11-29T02:18:53.831Z,9.00
2022-11-29T02:22:07.969Z,8.90
2022-11-29T02:24:57.654Z,8.90
2022-11-29T02:27:47.952Z,8.90
2022-11-29T02:31:05.167Z,8.90
2022-11-29T02:33:46.923Z,8.90
2022-11-29T02:36:44.566Z,8.80
2022-11-29T02:40:06.950Z,8.80
2022-11-29T02:43:07.039Z,8.80
2022-11-29T02:46:04.508Z,8.80
2022-11-29T02:49:23.636Z,8.70
2022-11-29T02:52:01.752Z,8.70
2022-11-29T02:54:56.493Z,8.70
2022-11-29T02:57:40.315Z,8.70
2022-11-29T03:00:25.768Z,8.70
2022-11-29T03:02:57.619Z,8.60
2022-11-29T03:05:36.062Z,8.70
2022-11-29T03:08:55.728Z,8.70
2022-11-29T03:11:37.608Z,8.70
2022-11-29T03:14:16.114Z,8.70
2022-11-29T03:17:24.896Z,8.60
2022-11-29T03:20:12.331Z,8.60
2022-11-29T03:22:43.170Z,8.60
2022-11-29T03:25:29.046Z,8.60
2022-11-29T03:28:03.111Z,8.60
2022-11-29T03:30:38.112Z,8.70
2022-11-29T03:33:12.945Z,8.60
2022-11-29T03:36:00.817Z,8.60
2022-11-29T03:38:46.023Z,8.60
2022-11-29T03:41:40.821Z,8.60
2022-11-29T03:44:20.312Z,8.60
2022-11-29T03:47:04.611Z,8.60
2022-11-29T03:49:53.311Z,8.80
2022-11-29T03:53:03.205Z,8.70
2022-11-29T03:56:00.249Z,8.70
2022-11-29T03:59:12.319Z,8.70
2022-11-29T04:02:19.738Z,8.70
2022-11-29T04:05:24.169Z,8.70
2022-11-29T04:08:27.290Z,8.70
2022-11-29T04:11:54.847Z,8.70
2022-11-29T04:14:49.718Z,8.70
2022-11-29T04:17:42.136Z,8.70
2022-11-29T04:20:33.832Z,8.70
2022-11-29T04:23:40.273Z,8.70
2022-11-29T04:26:39.794Z,8.70
2022-11-29T04:29:17.652Z,8.70
2022-11-29T04:32:41.248Z,8.70
2022-11-29T04:36:12.408Z,8.60
2022-11-29T04:39:06.587Z,8.60
2022-11-29T04:42:04.053Z,8.60
2022-11-29T04:44:49.595Z,8.60
2022-11-29T04:47:34.083Z,8.60
2022-11-29T04:50:06.210Z,8.50
2022-11-29T04:53:00.052Z,8.50
2022-11-29T04:56:14.820Z,8.50
2022-11-29T04:59:16.352Z,8.50
2022-11-29T05:02:01.103Z,8.60
2022-11-29T05:05:09.357Z,8.50
2022-11-29T05:08:38.970Z,8.50
2022-11-29T05:11:33.454Z,8.40
2022-11-29T05:14:15.061Z,8.40
2022-11-29T05:17:08.616Z,8.30
2022-11-29T05:20:32.910Z,8.40
2022-11-29T05:23:33.948Z,8.30
2022-11-29T05:26:18.098Z,8.30
2022-11-29T05:29:06.048Z,8.30
2022-11-29T05:32:24.806Z,8.20
2022-11-29T05:35:32.021Z,8.20
2022-11-29T05:38:36.816Z,8.20
2022-11-29T05:41:42.982Z,8.20
2022-11-29T05:44:24.630Z,8.10
2022-11-29T05:47:10.101Z,8.20
2022-11-29T05:49:53.905Z,8.10
2022-11-29T05:52:44.484Z,8.10
2022-11-29T05:55:14.200Z,8.10
2022-11-29T05:58:00.888Z,8.10
2022-11-29T06:00:42.147Z,8.10
2022-11-29T06:03:31.252Z,8.10
2022-11-29T06:06:08.144Z,8.10
2022-11-29T06:08:59.866Z,8.10
2022-11-29T06:11:54.897Z,8.10
2022-11-29T06:14:46.377Z,8.10
2022-11-29T06:17:48.708Z,8.10
2022-11-29T06:20:45.564Z,8.10
2022-11-29T06:23:41.375Z,8.10
2022-11-29T06:26:44.828Z,8.00
2022-11-29T06:29:29.342Z,8.00
2022-11-29T06:32:40.297Z,8.10
2022-11-29T06:35:21.019Z,8.10
2022-11-29T06:37:53.670Z,8.10
2022-11-29T06:40:20.700Z,8.10
2022-11-29T06:42:48.918Z,8.00
2022-11-29T06:45:16.834Z,8.00
2022-11-29T06:47:56.875Z,8.10
2022-11-29T06:50:35.498Z,8.10
2022-11-29T06:53:16.107Z,8.10
2022-11-29T06:56:08.007Z,8.10
2022-11-29T06:58:51.110Z,8.10
2022-11-29T07:01:52.021Z,8.10
2022-11-29T07:04:33.278Z,8.20
2022-11-29T07:07:00.570Z,8.20
2022-11-29T07:09:34.654Z,8.20
2022-11-29T07:12:02.068Z,8.20
2022-11-29T07:14:29.596Z,8.20
2022-11-29T07:17:30.347Z,8.20
2022-11-29T07:20:28.083Z,8.30
2022-11-29T07:23:23.003Z,8.30
2022-11-29T07:26:35.005Z,8.30
2022-11-29T07:29:46.638Z,8.40
2022-11-29T07:32:47.276Z,8.40
2022-11-29T07:35:28.282Z,8.30
2022-11-29T07:38:23.230Z,8.40
2022-11-29T07:41:11.042Z,8.40
2022-11-29T07:43:59.117Z,8.40
2022-11-29T07:46:28.479Z,8.40
2022-11-29T07:48:55.563Z,8.50
2022-11-29T07:51:22.475Z,8.40
2022-11-29T07:53:49.429Z,8.50
2022-11-29T07:56:16.431Z,8.50
2022-11-29T07:58:43.702Z,8.50
2022-11-29T08:01:10.671Z,8.50
2022-11-29T08:03:37.831Z,8.50
2022-11-29T08:06:04.701Z,8.60
2022-11-29T08:08:31.566Z,8.60
2022-11-29T08:10:58.369Z,8.60
2022-11-29T08:13:25.194Z,8.60
2022-11-29T08:15:52.092Z,8.70
2022-11-29T08:18:19.069Z,8.70
2022-11-29T08:20:46.344Z,8.80
2022-11-29T08:23:14.160Z,8.70
2022-11-29T08:25:41.350Z,8.70
2022-11-29T08:28:09.589Z,8.80
2022-11-29T08:30:36.559Z,8.80
2022-11-29T08:33:04.293Z,8.80
2022-11-29T08:35:31.468Z,8.80
2022-11-29T08:37:58.340Z,8.80
2022-11-29T08:40:25.265Z,8.90
2022-11-29T08:42:52.107Z,8.90
2022-11-29T08:45:19.042Z,8.80
2022-11-29T08:47:45.889Z,8.80
2022-11-29T08:50:16.648Z,8.90
2022-11-29T08:53:06.253Z,8.90
2022-11-29T08:55:42.489Z,8.90
2022-11-29T08:58:15.504Z,8.90
2022-11-29T09:00:48.536Z,8.90
2022-11-29T09:03:33.706Z,8.90
2022-11-29T09:06:12.910Z,8.90
2022-11-29T09:08:43.641Z,8.90
2022-11-29T09:11:22.077Z,9.00
2022-11-29T09:13:56.657Z,9.00
2022-11-29T09:16:27.498Z,9.00
2022-11-29T09:18:56.005Z,9.00
2022-11-29T09:21:26.355Z,9.00
2022-11-29T09:23:58.926Z,9.00
2022-11-29T09:26:33.964Z,9.00
2022-11-29T09:29:04.427Z,9.00
2022-11-29T09:31:33.136Z,9.00
2022-11-29T09:34:00.343Z,9.00
2022-11-29T09:36:29.537Z,9.00
2022-11-29T09:38:57.767Z,9.00
2022-11-29T09:41:58.363Z,9.00
2022-11-29T09:44:35.428Z,9.00
2022-11-29T09:47:56.734Z,9.00
2022-11-29T09:50:34.120Z,9.00
2022-11-29T09:53:43.704Z,9.00
2022-11-29T09:56:40.666Z,9.00
2022-11-29T09:59:26.023Z,9.00
2022-11-29T10:02:21.817Z,9.00
2022-11-29T10:05:31.136Z,9.00
2022-11-29T10:08:15.725Z,9.10
2022-11-29T10:10:49.594Z,9.10
2022-11-29T10:13:19.233Z,9.10
2022-11-29T10:15:53.394Z,9.10
2022-11-29T10:19:26.295Z,9.20
2022-11-29T10:22:22.598Z,9.20
2022-11-29T10:24:57.466Z,9.20
2022-11-29T10:27:28.040Z,9.30
2022-11-29T10:29:56.472Z,9.30
2022-11-29T10:32:25.928Z,9.40
2022-11-29T10:34:53.077Z,9.40
2022-11-29T10:37:23.134Z,9.40
2022-11-29T10:39:58.748Z,9.50
2022-11-29T10:42:47.523Z,9.50
2022-11-29T10:45:56.373Z,9.50
2022-11-29T10:48:32.086Z,9.50
2022-11-29T10:51:00.554Z,9.60
2022-11-29T10:53:36.808Z,9.60
2022-11-29T10:56:29.383Z,9.60
2022-11-29T10:59:05.104Z,9.60
2022-11-29T11:01:37.502Z,9.60
2022-11-29T11:04:08.518Z,9.60
2022-11-29T11:06:52.421Z,9.60
2022-11-29T11:09:33.564Z,9.60
2022-11-29T11:12:11.607Z,9.60
2022-11-29T11:14:39.249Z,9.60
2022-11-29T11:17:42.200Z,9.60
2022-11-29T11:20:24.072Z,9.70
2022-11-29T11:23:04.452Z,9.80
2022-11-29T11:25:36.645Z,9.80
2022-11-29T11:29:01.569Z,9.80
2022-11-29T11:31:39.473Z,9.80
2022-11-29T11:34:28.910Z,9.80
2022-11-29T11:37:16.540Z,9.90
2022-11-29T11:39:46.298Z,9.80
2022-11-29T11:42:37.083Z,9.80
2022-11-29T11:45:12.718Z,9.80
2022-11-29T11:47:57.778Z,9.80
2022-11-29T11:50:44.475Z,9.80
2022-11-29T11:53:27.693Z,9.80
2022-11-29T11:56:01.117Z,9.80
2022-11-29T11:58:38.455Z,9.90
2022-11-29T12:01:30.264Z,9.80
2022-11-29T12:04:27.353Z,9.90
2022-11-29T12:07:03.082Z,9.90
2022-11-29T12:10:02.683Z,9.90
2022-11-29T12:12:31.419Z,9.90
2022-11-29T12:15:03.232Z,10.00
2022-11-29T12:18:14.604Z,10.00
2022-11-29T12:21:03.961Z,10.00
2022-11-29T12:23:30.659Z,10.00
2022-11-29T12:29:30.072Z,10.00
2022-11-29T12:32:17.168Z,10.10
2022-11-29T12:35:04.815Z,10.10
2022-11-29T12:37:55.658Z,10.10
2022-11-29T12:40:39.257Z,10.10
2022-11-29T12:43:40.751Z,10.20
2022-11-29T12:46:25.088Z,10.20
2022-11-29T12:49:28.624Z,10.20
2022-11-29T12:52:06.124Z,10.20
2022-11-29T12:54:55.621Z,10.40
2022-11-29T12:57:49.096Z,10.30
2022-11-29T13:00:19.815Z,10.30
2022-11-29T13:03:29.409Z,10.40
2022-11-29T13:06:02.194Z,10.40
2022-11-29T13:09:03.681Z,10.40
2022-11-29T13:11:37.697Z,10.30
2022-11-29T13:14:42.041Z,10.30
2022-11-29T13:17:17.848Z,10.30
2022-11-29T13:19:57.920Z,10.30
2022-11-29T13:23:03.460Z,10.20
2022-11-29T13:25:44.097Z,10.10
2022-11-29T13:28:30.208Z,10.10
2022-11-29T13:31:28.186Z,10.10
2022-11-29T13:34:12.738Z,10.10
2022-11-29T13:37:15.200Z,10.00
2022-11-29T13:40:09.693Z,10.10
2022-11-29T13:42:52.241Z,10.10
2022-11-29T13:45:39.015Z,10.10
2022-11-29T13:48:52.426Z,10.10
2022-11-29T13:51:29.123Z,10.10
2022-11-29T13:54:00.298Z,10.10
2022-11-29T13:56:46.240Z,10.10
2022-11-29T13:59:28.255Z,10.10
2022-11-29T14:01:56.942Z,10.20
2022-11-29T14:04:38.596Z,10.10
2022-11-29T14:07:21.285Z,10.10
2022-11-29T14:10:29.060Z,10.10
2022-11-29T14:12:59.824Z,10.10
2022-11-29T14:15:32.056Z,10.10
2022-11-29T14:18:09.401Z,10.10
2022-11-29T14:20:54.921Z,10.10
2022-11-29T14:23:34.779Z,10.10
2022-11-29T14:26:01.514Z,10.10
2022-11-29T14:28:39.518Z,10.00
2022-11-29T14:31:08.806Z,10.00
2022-11-29T14:34:15.257Z,9.90
2022-11-29T14:36:58.973Z,9.90
2022-11-29T14:39:38.125Z,9.90
2022-11-29T14:42:21.113Z,9.90
2022-11-29T14:44:58.324Z,9.90
2022-11-29T14:47:34.427Z,9.90
2022-11-29T14:50:08.802Z,9.90
2022-11-29T14:52:49.859Z,9.90
2022-11-29T14:55:16.639Z,9.80
2022-11-29T14:58:16.987Z,9.80
2022-11-29T15:00:49.770Z,9.80
2022-11-29T15:03:16.562Z,9.80
2022-11-29T15:05:57.292Z,9.70
2022-11-29T15:08:32.291Z,9.70
2022-11-29T15:11:14.399Z,9.70
2022-11-29T15:14:16.023Z,9.70
2022-11-29T15:16:51.784Z,9.70
2022-11-29T15:20:08.287Z,9.60
2022-11-29T15:22:52.507Z,9.60
2022-11-29T15:25:26.448Z,9.60
2022-11-29T15:28:02.681Z,9.60
2022-11-29T15:30:41.441Z,9.60
2022-11-29T15:33:24.952Z,9.60
2022-11-29T15:35:57.850Z,9.50
2022-11-29T15:38:24.727Z,9.50
2022-11-29T15:40:54.446Z,9.50
2022-11-29T15:43:23.587Z,9.50
2022-11-29T15:45:56.858Z,9.50
2022-11-29T15:48:30.025Z,9.50
2022-11-29T15:51:25.533Z,9.40
2022-11-29T15:54:13.803Z,9.50
2022-11-29T15:56:49.277Z,9.50
2022-11-29T15:59:36.730Z,9.40
2022-11-29T16:02:29.478Z,9.40
2022-11-29T16:05:20.257Z,9.40
2022-11-29T16:07:51.113Z,9.30
2022-11-29T16:10:23.154Z,9.40
2022-11-29T16:13:05.997Z,9.40
2022-11-29T16:15:39.460Z,9.30
2022-11-29T16:18:13.764Z,9.30
2022-11-29T16:20:41.477Z,9.20
2022-11-29T16:23:14.046Z,9.20
2022-11-29T16:26:13.677Z,9.20
2022-11-29T16:28:47.488Z,9.10
2022-11-29T16:31:23.611Z,9.20
2022-11-29T16:33:52.520Z,9.10
2022-11-29T16:36:29.056Z,9.10
2022-11-29T16:39:25.138Z,9.10
2022-11-29T16:42:26.352Z,9.10
2022-11-29T16:45:01.854Z,9.10
2022-11-29T16:48:01.453Z,9.10
2022-11-29T16:50:30.912Z,9.10
2022-11-29T16:53:35.410Z,9.00
2022-11-29T16:56:03.119Z,9.00
2022-11-29T16:58:30.023Z,9.00
2022-11-29T17:00:56.870Z,9.00
2022-11-29T17:03:23.742Z,9.00
2022-11-29T17:05:50.890Z,9.00
2022-11-29T17:08:17.816Z,9.00
2022-11-29T17:10:44.620Z,9.00
2022-11-29T17:13:12.061Z,9.00
2022-11-29T17:15:39.029Z,8.90
2022-11-29T17:18:05.945Z,8.90
2022-11-29T17:20:33.120Z,8.90
2022-11-29T17:23:00.034Z,8.90
2022-11-29T17:25:27.065Z,8.90
2022-11-29T17:27:53.922Z,8.90
2022-11-29T17:30:20.907Z,8.90
2022-11-29T17:32:47.976Z,8.80
2022-11-29T17:35:15.429Z,8.80
2022-11-29T17:37:42.302Z,8.80
2022-11-29T17:40:09.741Z,8.80
2022-11-29T17:42:36.731Z,8.80
2022-11-29T17:45:04.167Z,8.80
2022-11-29T17:47:32.443Z,8.80
2022-11-29T17:50:00.128Z,8.70
2022-11-29T17:52:26.968Z,8.80
2022-11-29T17:54:54.044Z,8.70
2022-11-29T17:57:20.941Z,8.80
2022-11-29T17:59:48.002Z,8.70
2022-11-29T18:02:15.135Z,8.60
2022-11-29T18:04:43.885Z,8.60
2022-11-29T18:07:10.778Z,8.60
2022-11-29T18:09:37.626Z,8.60
2022-11-29T18:12:04.621Z,8.50
2022-11-29T18:14:31.585Z,8.50
2022-11-29T18:16:58.641Z,8.50
2022-11-29T18:19:25.827Z,8.40
2022-11-29T18:21:52.822Z,8.40
2022-11-29T18:24:20.070Z,8.30
2022-11-29T18:26:47.306Z,8.20
2022-11-29T18:29:14.295Z,8.20
2022-11-29T18:31:44.864Z,8.20
2022-11-29T18:34:14.599Z,8.20
2022-11-29T18:36:48.259Z,8.20
2022-11-29T18:39:20.196Z,8.20
2022-11-29T18:41:50.546Z,8.20
2022-11-29T18:44:21.466Z,8.20
2022-11-29T18:46:48.534Z,8.20
2022-11-29T18:49:18.087Z,8.20
2022-11-29T18:51:46.726Z,8.20
2022-11-29T18:54:16.322Z,8.20
2022-11-29T18:56:45.372Z,8.20
2022-11-29T18:59:17.192Z,8.20
2022-11-29T19:01:47.593Z,8.10
2022-11-29T19:04:20.611Z,8.10
2022-11-29T19:06:48.357Z,8.10
2022-11-29T19:09:21.193Z,8.10
2022-11-29T19:11:49.624Z,8.10
2022-11-29T19:14:16.585Z,8.20
2022-11-29T19:16:46.398Z,8.20
2022-11-29T19:19:13.568Z,8.20
2022-11-29T19:21:43.600Z,8.20
2022-11-29T19:24:15.803Z,8.20
2022-11-29T19:26:46.013Z,8.20
2022-11-29T19:29:14.269Z,8.20
2022-11-29T19:31:42.562Z,8.20
2022-11-29T19:34:10.035Z,8.20
2022-11-29T19:36:42.479Z,8.30
2022-11-29T19:39:12.098Z,8.30
2022-11-29T19:41:39.172Z,8.20
2022-11-29T19:44:08.332Z,8.30
2022-11-29T19:46:43.321Z,8.20
2022-11-29T19:49:10.412Z,8.20
2022-11-29T19:51:37.965Z,8.20
2022-11-29T19:54:08.326Z,8.20
2022-11-29T19:56:35.264Z,8.20
2022-11-29T19:59:02.507Z,8.20
2022-11-29T20:01:39.754Z,8.20
2022-11-29T20:04:09.115Z,8.20
2022-11-29T20:06:36.951Z,8.10
2022-11-29T20:09:04.464Z,8.10
2022-11-29T20:11:31.291Z,8.10
2022-11-29T20:14:01.787Z,8.10
2022-11-29T20:16:30.513Z,8.10
2022-11-29T20:18:58.854Z,8.00
2022-11-29T20:21:31.085Z,8.00
2022-11-29T20:24:05.046Z,8.00
2022-11-29T20:26:35.575Z,8.00
2022-11-29T20:29:04.174Z,8.00
2022-11-29T20:31:33.769Z,8.00
2022-11-29T20:34:02.193Z,7.90
2022-11-29T20:37:07.290Z,8.00
2022-11-29T20:39:54.806Z,7.90
2022-11-29T20:42:33.474Z,7.90
2022-11-29T20:45:04.249Z,8.00
2022-11-29T20:47:58.311Z,8.00
2022-11-29T20:50:32.010Z,8.00
2022-11-29T20:53:30.722Z,7.90
2022-11-29T20:55:58.581Z,8.00
2022-11-29T20:58:26.470Z,7.90
2022-11-29T21:00:55.183Z,7.90
2022-11-29T21:03:23.858Z,7.90
2022-11-29T21:05:52.263Z,7.90
2022-11-29T21:08:23.509Z,7.90
2022-11-29T21:10:51.380Z,7.90
2022-11-29T21:13:21.531Z,7.90
2022-11-29T21:15:50.068Z,7.90
2022-11-29T21:18:26.814Z,7.80
2022-11-29T21:21:27.990Z,7.90
2022-11-29T21:24:45.978Z,7.90
2022-11-29T21:27:26.974Z,7.90
2022-11-29T21:29:54.729Z,7.80
2022-11-29T21:32:25.131Z,7.80
2022-11-29T21:34:52.965Z,7.80
2022-11-29T21:37:25.887Z,7.80
2022-11-29T21:39:54.975Z,7.80
2022-11-29T21:42:22.016Z,7.70
2022-11-29T21:44:49.106Z,7.70
2022-11-29T21:47:19.317Z,7.70
2022-11-29T21:49:46.795Z,7.60
2022-11-29T21:52:19.024Z,7.70
2022-11-29T21:54:49.150Z,7.70
2022-11-29T21:57:16.098Z,7.70
2022-11-29T21:59:42.932Z,7.70
2022-11-29T22:02:10.031Z,7.80
2022-11-29T22:04:36.915Z,7.70
2022-11-29T22:07:03.681Z,7.60
2022-11-29T22:09:30.487Z,7.60
2022-11-29T22:11:58.880Z,7.60
2022-11-29T22:14:25.766Z,7.50
2022-11-29T22:16:59.154Z,7.50
2022-11-29T22:19:32.966Z,7.50
2022-11-29T22:22:03.937Z,7.50
2022-11-29T22:24:34.082Z,7.50
2022-11-29T22:27:01.739Z,7.40
2022-11-29T22:29:28.932Z,7.40
2022-11-29T22:31:56.886Z,7.30
2022-11-29T22:34:25.269Z,7.30
2022-11-29T22:36:52.298Z,7.40
2022-11-29T22:39:19.221Z,7.40
2022-11-29T22:41:52.271Z,7.30
2022-11-29T22:44:21.091Z,7.30
2022-11-29T22:46:48.104Z,7.30
2022-11-29T22:49:15.082Z,7.30
2022-11-29T22:51:42.094Z,7.40
2022-11-29T22:54:11.608Z,7.30
2022-11-29T22:56:41.307Z,7.30
2022-11-29T22:59:09.201Z,7.30
2022-11-29T23:01:39.519Z,7.20
2022-11-29T23:04:09.034Z,7.20
2022-11-29T23:06:42.840Z,7.20
2022-11-29T23:09:27.922Z,7.20
2022-11-29T23:11:56.135Z,7.10
2022-11-29T23:14:25.215Z,7.10
2022-11-29T23:16:52.494Z,7.10
2022-11-29T23:19:19.934Z,7.00
2022-11-29T23:21:47.219Z,7.00
2022-11-29T23:24:15.540Z,6.90
2022-11-29T23:26:46.814Z,6.80
2022-11-29T23:29:18.025Z,6.80
2022-11-29T23:31:46.524Z,6.70
2022-11-29T23:34:14.188Z,6.60
2022-11-29T23:36:41.507Z,6.60
2022-11-29T23:39:08.698Z,6.60
2022-11-29T23:41:37.685Z,6.60
2022-11-29T23:44:06.032Z,6.60
2022-11-29T23:46:34.950Z,6.60
2022-11-29T23:49:01.849Z,6.60
2022-11-29T23:51:28.747Z,6.60
2022-11-29T23:53:55.788Z,6.60
2022-11-29T23:56:23.019Z,6.60
2022-11-29T23:58:50.181Z,6.60
